sensor_id;sensor_type;location;lat;lon;timestamp;P1;durP1;ratioP1;P2;durP2;ratioP2
76423;SDS011;65257;52.104;4.268;2024-01-25T00:00:47;59.47;;;11.13;;
76423;SDS011;65257;52.104;4.268;2024-01-25T00:03:12;50.78;;;9.35;;
76423;SDS011;65257;52.104;4.268;2024-01-25T00:05:38;62.90;;;10.35;;
76423;SDS011;65257;52.104;4.268;2024-01-25T00:08:03;65.60;;;10.35;;
76423;SDS011;65257;52.104;4.268;2024-01-25T00:10:30;52.92;;;10.25;;
76423;SDS011;65257;52.104;4.268;2024-01-25T00:12:59;52.25;;;9.45;;
76423;SDS011;65257;52.104;4.268;2024-01-25T00:15:24;52.30;;;8.85;;
76423;SDS011;65257;52.104;4.268;2024-01-25T00:17:50;47.53;;;8.80;;
76423;SDS011;65257;52.104;4.268;2024-01-25T00:20:15;54.28;;;10.52;;
76423;SDS011;65257;52.104;4.268;2024-01-25T00:22:41;62.33;;;9.82;;
76423;SDS011;65257;52.104;4.268;2024-01-25T00:25:07;48.00;;;10.00;;
76423;SDS011;65257;52.104;4.268;2024-01-25T00:27:38;46.78;;;9.35;;
76423;SDS011;65257;52.104;4.268;2024-01-25T00:30:07;52.88;;;9.40;;
76423;SDS011;65257;52.104;4.268;2024-01-25T00:32:41;53.63;;;9.18;;
76423;SDS011;65257;52.104;4.268;2024-01-25T00:35:07;51.17;;;8.75;;
76423;SDS011;65257;52.104;4.268;2024-01-25T00:37:38;64.35;;;9.77;;
76423;SDS011;65257;52.104;4.268;2024-01-25T00:40:11;48.78;;;8.45;;
76423;SDS011;65257;52.104;4.268;2024-01-25T00:42:44;61.13;;;10.13;;
76423;SDS011;65257;52.104;4.268;2024-01-25T00:47:42;55.13;;;9.05;;
76423;SDS011;65257;52.104;4.268;2024-01-25T00:50:13;66.82;;;11.52;;
76423;SDS011;65257;52.104;4.268;2024-01-25T00:52:42;61.65;;;9.75;;
76423;SDS011;65257;52.104;4.268;2024-01-25T00:55:09;56.40;;;10.07;;
76423;SDS011;65257;52.104;4.268;2024-01-25T00:57:35;62.72;;;11.55;;
76423;SDS011;65257;52.104;4.268;2024-01-25T01:00:03;55.55;;;9.80;;
76423;SDS011;65257;52.104;4.268;2024-01-25T01:04:59;55.92;;;9.57;;
76423;SDS011;65257;52.104;4.268;2024-01-25T01:07:34;57.50;;;10.10;;
76423;SDS011;65257;52.104;4.268;2024-01-25T01:10:00;51.85;;;8.90;;
76423;SDS011;65257;52.104;4.268;2024-01-25T01:12:36;74.93;;;12.10;;
76423;SDS011;65257;52.104;4.268;2024-01-25T01:15:01;62.30;;;9.27;;
76423;SDS011;65257;52.104;4.268;2024-01-25T01:17:29;79.80;;;11.88;;
76423;SDS011;65257;52.104;4.268;2024-01-25T01:19:55;51.03;;;10.10;;
76423;SDS011;65257;52.104;4.268;2024-01-25T01:22:23;67.78;;;11.18;;
76423;SDS011;65257;52.104;4.268;2024-01-25T01:24:48;58.50;;;10.32;;
76423;SDS011;65257;52.104;4.268;2024-01-25T01:27:20;59.55;;;10.52;;
76423;SDS011;65257;52.104;4.268;2024-01-25T01:29:55;72.03;;;12.23;;
76423;SDS011;65257;52.104;4.268;2024-01-25T01:32:21;47.10;;;9.48;;
76423;SDS011;65257;52.104;4.268;2024-01-25T01:34:46;60.75;;;10.52;;
76423;SDS011;65257;52.104;4.268;2024-01-25T01:37:11;57.17;;;10.20;;
76423;SDS011;65257;52.104;4.268;2024-01-25T01:39:37;68.07;;;11.20;;
76423;SDS011;65257;52.104;4.268;2024-01-25T01:42:08;56.03;;;9.80;;
76423;SDS011;65257;52.104;4.268;2024-01-25T01:44:34;75.35;;;11.05;;
76423;SDS011;65257;52.104;4.268;2024-01-25T01:47:03;53.97;;;10.95;;
76423;SDS011;65257;52.104;4.268;2024-01-25T01:49:30;80.32;;;12.02;;
76423;SDS011;65257;52.104;4.268;2024-01-25T01:51:55;54.75;;;8.65;;
76423;SDS011;65257;52.104;4.268;2024-01-25T01:54:21;68.88;;;11.20;;
76423;SDS011;65257;52.104;4.268;2024-01-25T01:56:50;57.90;;;10.32;;
76423;SDS011;65257;52.104;4.268;2024-01-25T01:59:17;68.10;;;11.13;;
76423;SDS011;65257;52.104;4.268;2024-01-25T02:01:46;73.38;;;12.02;;
76423;SDS011;65257;52.104;4.268;2024-01-25T02:04:20;60.85;;;11.93;;
76423;SDS011;65257;52.104;4.268;2024-01-25T02:06:48;64.00;;;10.88;;
76423;SDS011;65257;52.104;4.268;2024-01-25T02:09:17;68.60;;;12.30;;
76423;SDS011;65257;52.104;4.268;2024-01-25T02:11:46;78.82;;;11.02;;
76423;SDS011;65257;52.104;4.268;2024-01-25T02:14:12;62.35;;;12.07;;
76423;SDS011;65257;52.104;4.268;2024-01-25T02:16:38;64.38;;;10.32;;
76423;SDS011;65257;52.104;4.268;2024-01-25T02:19:06;64.75;;;10.57;;
76423;SDS011;65257;52.104;4.268;2024-01-25T02:21:32;62.92;;;11.95;;
76423;SDS011;65257;52.104;4.268;2024-01-25T02:23:57;73.40;;;10.27;;
76423;SDS011;65257;52.104;4.268;2024-01-25T02:26:23;85.47;;;12.88;;
76423;SDS011;65257;52.104;4.268;2024-01-25T02:28:53;52.92;;;11.73;;
76423;SDS011;65257;52.104;4.268;2024-01-25T02:31:18;58.25;;;9.13;;
76423;SDS011;65257;52.104;4.268;2024-01-25T02:33:43;54.83;;;8.45;;
76423;SDS011;65257;52.104;4.268;2024-01-25T02:36:09;57.47;;;9.07;;
76423;SDS011;65257;52.104;4.268;2024-01-25T02:38:34;56.45;;;10.45;;
76423;SDS011;65257;52.104;4.268;2024-01-25T02:41:00;51.38;;;8.38;;
76423;SDS011;65257;52.104;4.268;2024-01-25T02:43:28;55.13;;;8.77;;
76423;SDS011;65257;52.104;4.268;2024-01-25T02:45:53;60.22;;;9.50;;
76423;SDS011;65257;52.104;4.268;2024-01-25T02:48:22;58.17;;;8.73;;
76423;SDS011;65257;52.104;4.268;2024-01-25T02:50:47;58.55;;;8.50;;
76423;SDS011;65257;52.104;4.268;2024-01-25T02:53:14;49.22;;;8.63;;
76423;SDS011;65257;52.104;4.268;2024-01-25T02:55:43;45.53;;;7.30;;
76423;SDS011;65257;52.104;4.268;2024-01-25T02:58:09;53.53;;;8.00;;
76423;SDS011;65257;52.104;4.268;2024-01-25T03:00:41;45.25;;;7.65;;
76423;SDS011;65257;52.104;4.268;2024-01-25T03:03:10;53.28;;;9.65;;
76423;SDS011;65257;52.104;4.268;2024-01-25T03:05:35;55.38;;;7.35;;
76423;SDS011;65257;52.104;4.268;2024-01-25T03:08:04;42.92;;;10.25;;
76423;SDS011;65257;52.104;4.268;2024-01-25T03:10:32;51.15;;;9.25;;
76423;SDS011;65257;52.104;4.268;2024-01-25T03:12:58;58.55;;;8.65;;
76423;SDS011;65257;52.104;4.268;2024-01-25T03:15:23;61.30;;;8.88;;
76423;SDS011;65257;52.104;4.268;2024-01-25T03:17:49;58.42;;;9.93;;
76423;SDS011;65257;52.104;4.268;2024-01-25T03:20:14;44.85;;;8.70;;
76423;SDS011;65257;52.104;4.268;2024-01-25T03:22:40;61.95;;;9.43;;
76423;SDS011;65257;52.104;4.268;2024-01-25T03:25:05;81.03;;;10.60;;
76423;SDS011;65257;52.104;4.268;2024-01-25T03:27:31;50.88;;;9.32;;
76423;SDS011;65257;52.104;4.268;2024-01-25T03:29:59;42.30;;;8.73;;
76423;SDS011;65257;52.104;4.268;2024-01-25T03:32:25;62.17;;;9.45;;
76423;SDS011;65257;52.104;4.268;2024-01-25T03:34:51;62.22;;;9.20;;
76423;SDS011;65257;52.104;4.268;2024-01-25T03:37:19;43.67;;;7.55;;
76423;SDS011;65257;52.104;4.268;2024-01-25T03:39:47;50.83;;;7.35;;
76423;SDS011;65257;52.104;4.268;2024-01-25T03:42:13;47.85;;;7.95;;
76423;SDS011;65257;52.104;4.268;2024-01-25T03:44:41;46.95;;;7.57;;
76423;SDS011;65257;52.104;4.268;2024-01-25T03:47:08;40.78;;;6.65;;
76423;SDS011;65257;52.104;4.268;2024-01-25T03:49:36;32.45;;;4.88;;
76423;SDS011;65257;52.104;4.268;2024-01-25T03:52:02;30.23;;;5.55;;
76423;SDS011;65257;52.104;4.268;2024-01-25T03:54:29;36.78;;;6.10;;
76423;SDS011;65257;52.104;4.268;2024-01-25T03:57:04;32.95;;;5.53;;
76423;SDS011;65257;52.104;4.268;2024-01-25T03:59:30;48.47;;;6.38;;
76423;SDS011;65257;52.104;4.268;2024-01-25T04:01:56;61.20;;;8.27;;
76423;SDS011;65257;52.104;4.268;2024-01-25T04:04:22;54.92;;;8.52;;
76423;SDS011;65257;52.104;4.268;2024-01-25T04:06:53;56.70;;;8.00;;
76423;SDS011;65257;52.104;4.268;2024-01-25T04:09:22;58.28;;;10.27;;
76423;SDS011;65257;52.104;4.268;2024-01-25T04:11:47;58.97;;;9.63;;
76423;SDS011;65257;52.104;4.268;2024-01-25T04:14:15;44.97;;;8.75;;
76423;SDS011;65257;52.104;4.268;2024-01-25T04:16:41;46.53;;;7.45;;
76423;SDS011;65257;52.104;4.268;2024-01-25T04:19:06;34.50;;;5.75;;
76423;SDS011;65257;52.104;4.268;2024-01-25T04:21:32;45.03;;;7.57;;
76423;SDS011;65257;52.104;4.268;2024-01-25T04:24:00;38.05;;;7.43;;
76423;SDS011;65257;52.104;4.268;2024-01-25T04:26:26;53.25;;;7.18;;
76423;SDS011;65257;52.104;4.268;2024-01-25T04:28:51;35.50;;;6.00;;
76423;SDS011;65257;52.104;4.268;2024-01-25T04:31:17;40.08;;;7.47;;
76423;SDS011;65257;52.104;4.268;2024-01-25T04:33:42;32.45;;;6.43;;
76423;SDS011;65257;52.104;4.268;2024-01-25T04:36:14;41.78;;;8.20;;
76423;SDS011;65257;52.104;4.268;2024-01-25T04:38:39;55.97;;;9.05;;
76423;SDS011;65257;52.104;4.268;2024-01-25T04:41:07;43.47;;;10.52;;
76423;SDS011;65257;52.104;4.268;2024-01-25T04:43:38;53.33;;;8.43;;
76423;SDS011;65257;52.104;4.268;2024-01-25T04:46:07;50.25;;;8.32;;
76423;SDS011;65257;52.104;4.268;2024-01-25T04:48:34;61.15;;;9.25;;
76423;SDS011;65257;52.104;4.268;2024-01-25T04:51:01;56.78;;;8.45;;
76423;SDS011;65257;52.104;4.268;2024-01-25T04:53:27;47.75;;;6.97;;
76423;SDS011;65257;52.104;4.268;2024-01-25T04:55:53;45.40;;;7.70;;
76423;SDS011;65257;52.104;4.268;2024-01-25T04:58:23;42.72;;;6.63;;
76423;SDS011;65257;52.104;4.268;2024-01-25T05:00:51;42.70;;;6.50;;
76423;SDS011;65257;52.104;4.268;2024-01-25T05:03:17;38.03;;;6.43;;
76423;SDS011;65257;52.104;4.268;2024-01-25T05:05:44;49.40;;;6.65;;
76423;SDS011;65257;52.104;4.268;2024-01-25T05:08:10;46.17;;;7.38;;
76423;SDS011;65257;52.104;4.268;2024-01-25T05:10:36;58.10;;;7.97;;
76423;SDS011;65257;52.104;4.268;2024-01-25T05:13:04;52.92;;;8.45;;
76423;SDS011;65257;52.104;4.268;2024-01-25T05:15:30;56.13;;;8.70;;
76423;SDS011;65257;52.104;4.268;2024-01-25T05:17:55;45.38;;;9.05;;
76423;SDS011;65257;52.104;4.268;2024-01-25T05:20:21;49.70;;;7.57;;
76423;SDS011;65257;52.104;4.268;2024-01-25T05:22:57;51.95;;;7.93;;
76423;SDS011;65257;52.104;4.268;2024-01-25T05:25:22;43.00;;;9.32;;
76423;SDS011;65257;52.104;4.268;2024-01-25T05:27:51;45.38;;;6.13;;
76423;SDS011;65257;52.104;4.268;2024-01-25T05:30:17;42.85;;;5.97;;
76423;SDS011;65257;52.104;4.268;2024-01-25T05:32:43;39.08;;;7.32;;
76423;SDS011;65257;52.104;4.268;2024-01-25T05:35:12;54.08;;;6.80;;
76423;SDS011;65257;52.104;4.268;2024-01-25T05:37:38;54.33;;;7.97;;
76423;SDS011;65257;52.104;4.268;2024-01-25T05:40:03;49.47;;;6.82;;
76423;SDS011;65257;52.104;4.268;2024-01-25T05:42:30;41.05;;;7.15;;
76423;SDS011;65257;52.104;4.268;2024-01-25T05:44:57;50.47;;;7.40;;
76423;SDS011;65257;52.104;4.268;2024-01-25T05:47:25;48.15;;;6.05;;
76423;SDS011;65257;52.104;4.268;2024-01-25T05:49:51;39.58;;;6.65;;
76423;SDS011;65257;52.104;4.268;2024-01-25T05:52:16;48.25;;;6.40;;
76423;SDS011;65257;52.104;4.268;2024-01-25T05:54:46;50.67;;;7.22;;
76423;SDS011;65257;52.104;4.268;2024-01-25T05:57:14;40.25;;;5.65;;
76423;SDS011;65257;52.104;4.268;2024-01-25T05:59:40;33.10;;;5.93;;
76423;SDS011;65257;52.104;4.268;2024-01-25T06:02:05;37.15;;;6.32;;
76423;SDS011;65257;52.104;4.268;2024-01-25T06:04:32;40.38;;;6.18;;
76423;SDS011;65257;52.104;4.268;2024-01-25T06:06:59;48.38;;;5.57;;
76423;SDS011;65257;52.104;4.268;2024-01-25T06:09:25;38.65;;;7.40;;
76423;SDS011;65257;52.104;4.268;2024-01-25T06:11:50;35.92;;;5.82;;
76423;SDS011;65257;52.104;4.268;2024-01-25T06:14:26;33.28;;;5.88;;
76423;SDS011;65257;52.104;4.268;2024-01-25T06:16:52;45.17;;;5.63;;
76423;SDS011;65257;52.104;4.268;2024-01-25T06:19:17;34.28;;;6.18;;
76423;SDS011;65257;52.104;4.268;2024-01-25T06:21:49;44.53;;;7.15;;
76423;SDS011;65257;52.104;4.268;2024-01-25T06:24:15;39.00;;;6.05;;
76423;SDS011;65257;52.104;4.268;2024-01-25T06:26:41;44.67;;;6.45;;
76423;SDS011;65257;52.104;4.268;2024-01-25T06:29:09;41.33;;;6.78;;
76423;SDS011;65257;52.104;4.268;2024-01-25T06:31:44;37.55;;;9.00;;
76423;SDS011;65257;52.104;4.268;2024-01-25T06:34:26;32.72;;;6.15;;
76423;SDS011;65257;52.104;4.268;2024-01-25T06:36:51;39.53;;;6.45;;
76423;SDS011;65257;52.104;4.268;2024-01-25T06:39:17;38.45;;;7.72;;
76423;SDS011;65257;52.104;4.268;2024-01-25T06:41:42;35.70;;;6.40;;
76423;SDS011;65257;52.104;4.268;2024-01-25T06:44:08;34.45;;;5.70;;
76423;SDS011;65257;52.104;4.268;2024-01-25T06:46:33;37.03;;;6.43;;
76423;SDS011;65257;52.104;4.268;2024-01-25T06:48:59;26.88;;;7.10;;
76423;SDS011;65257;52.104;4.268;2024-01-25T06:51:28;42.60;;;7.22;;
76423;SDS011;65257;52.104;4.268;2024-01-25T06:53:53;29.80;;;5.38;;
76423;SDS011;65257;52.104;4.268;2024-01-25T06:56:18;29.73;;;6.47;;
76423;SDS011;65257;52.104;4.268;2024-01-25T06:58:44;35.47;;;5.93;;
76423;SDS011;65257;52.104;4.268;2024-01-25T07:01:09;32.75;;;6.20;;
76423;SDS011;65257;52.104;4.268;2024-01-25T07:03:35;30.15;;;5.95;;
76423;SDS011;65257;52.104;4.268;2024-01-25T07:06:01;34.17;;;5.80;;
76423;SDS011;65257;52.104;4.268;2024-01-25T07:08:44;34.47;;;6.45;;
76423;SDS011;65257;52.104;4.268;2024-01-25T07:11:13;42.45;;;6.50;;
76423;SDS011;65257;52.104;4.268;2024-01-25T07:13:40;33.92;;;6.35;;
76423;SDS011;65257;52.104;4.268;2024-01-25T07:16:06;28.45;;;5.63;;
76423;SDS011;65257;52.104;4.268;2024-01-25T07:18:31;28.52;;;5.25;;
76423;SDS011;65257;52.104;4.268;2024-01-25T07:20:56;34.70;;;6.20;;
76423;SDS011;65257;52.104;4.268;2024-01-25T07:23:25;29.70;;;6.60;;
76423;SDS011;65257;52.104;4.268;2024-01-25T07:25:52;26.70;;;5.60;;
76423;SDS011;65257;52.104;4.268;2024-01-25T07:28:20;34.85;;;6.93;;
76423;SDS011;65257;52.104;4.268;2024-01-25T07:30:55;27.02;;;5.45;;
76423;SDS011;65257;52.104;4.268;2024-01-25T07:33:20;26.70;;;6.13;;
76423;SDS011;65257;52.104;4.268;2024-01-25T07:35:45;39.70;;;6.13;;
76423;SDS011;65257;52.104;4.268;2024-01-25T07:38:14;30.70;;;6.45;;
76423;SDS011;65257;52.104;4.268;2024-01-25T07:40:52;27.33;;;5.75;;
76423;SDS011;65257;52.104;4.268;2024-01-25T07:43:17;33.88;;;6.38;;
76423;SDS011;65257;52.104;4.268;2024-01-25T07:45:43;36.03;;;6.88;;
76423;SDS011;65257;52.104;4.268;2024-01-25T07:48:09;32.60;;;8.02;;
76423;SDS011;65257;52.104;4.268;2024-01-25T07:50:37;30.52;;;5.53;;
76423;SDS011;65257;52.104;4.268;2024-01-25T07:53:06;32.50;;;5.63;;
76423;SDS011;65257;52.104;4.268;2024-01-25T07:55:31;29.48;;;6.90;;
76423;SDS011;65257;52.104;4.268;2024-01-25T07:58:00;27.85;;;5.30;;
76423;SDS011;65257;52.104;4.268;2024-01-25T08:00:25;26.58;;;6.35;;
76423;SDS011;65257;52.104;4.268;2024-01-25T08:02:50;31.30;;;7.53;;
76423;SDS011;65257;52.104;4.268;2024-01-25T08:05:19;31.63;;;5.82;;
76423;SDS011;65257;52.104;4.268;2024-01-25T08:07:45;31.00;;;6.13;;
76423;SDS011;65257;52.104;4.268;2024-01-25T08:10:11;22.30;;;5.40;;
76423;SDS011;65257;52.104;4.268;2024-01-25T08:12:36;27.60;;;6.20;;
76423;SDS011;65257;52.104;4.268;2024-01-25T08:15:07;40.67;;;6.68;;
76423;SDS011;65257;52.104;4.268;2024-01-25T08:17:33;29.17;;;6.57;;
76423;SDS011;65257;52.104;4.268;2024-01-25T08:20:01;31.65;;;6.60;;
76423;SDS011;65257;52.104;4.268;2024-01-25T08:22:27;34.85;;;7.65;;
76423;SDS011;65257;52.104;4.268;2024-01-25T08:24:53;32.08;;;6.55;;
76423;SDS011;65257;52.104;4.268;2024-01-25T08:27:19;33.20;;;6.32;;
76423;SDS011;65257;52.104;4.268;2024-01-25T08:29:44;27.15;;;6.15;;
76423;SDS011;65257;52.104;4.268;2024-01-25T08:32:10;40.17;;;6.68;;
76423;SDS011;65257;52.104;4.268;2024-01-25T08:34:36;33.55;;;7.15;;
76423;SDS011;65257;52.104;4.268;2024-01-25T08:37:01;36.20;;;8.23;;
76423;SDS011;65257;52.104;4.268;2024-01-25T08:39:26;33.08;;;6.30;;
76423;SDS011;65257;52.104;4.268;2024-01-25T08:41:52;30.50;;;8.20;;
76423;SDS011;65257;52.104;4.268;2024-01-25T08:44:18;30.65;;;7.00;;
76423;SDS011;65257;52.104;4.268;2024-01-25T08:46:44;24.42;;;5.85;;
76423;SDS011;65257;52.104;4.268;2024-01-25T08:49:12;26.10;;;6.55;;
76423;SDS011;65257;52.104;4.268;2024-01-25T08:51:38;26.85;;;5.85;;
76423;SDS011;65257;52.104;4.268;2024-01-25T08:54:07;18.67;;;5.05;;
76423;SDS011;65257;52.104;4.268;2024-01-25T08:56:32;40.85;;;7.38;;
76423;SDS011;65257;52.104;4.268;2024-01-25T08:59:01;31.77;;;6.88;;
76423;SDS011;65257;52.104;4.268;2024-01-25T09:01:26;26.08;;;6.70;;
76423;SDS011;65257;52.104;4.268;2024-01-25T09:03:53;35.72;;;6.82;;
76423;SDS011;65257;52.104;4.268;2024-01-25T09:06:30;38.53;;;7.75;;
76423;SDS011;65257;52.104;4.268;2024-01-25T09:08:56;26.50;;;6.55;;
76423;SDS011;65257;52.104;4.268;2024-01-25T09:11:21;23.30;;;7.13;;
76423;SDS011;65257;52.104;4.268;2024-01-25T09:13:47;24.45;;;7.75;;
76423;SDS011;65257;52.104;4.268;2024-01-25T09:16:15;23.70;;;7.57;;
76423;SDS011;65257;52.104;4.268;2024-01-25T09:18:41;36.95;;;7.55;;
76423;SDS011;65257;52.104;4.268;2024-01-25T09:21:13;24.88;;;6.95;;
76423;SDS011;65257;52.104;4.268;2024-01-25T09:23:39;28.25;;;6.82;;
76423;SDS011;65257;52.104;4.268;2024-01-25T09:26:05;24.58;;;5.85;;
76423;SDS011;65257;52.104;4.268;2024-01-25T09:28:30;27.75;;;6.28;;
76423;SDS011;65257;52.104;4.268;2024-01-25T09:30:56;30.95;;;6.13;;
76423;SDS011;65257;52.104;4.268;2024-01-25T09:33:21;30.55;;;7.85;;
76423;SDS011;65257;52.104;4.268;2024-01-25T09:35:46;27.67;;;6.63;;
76423;SDS011;65257;52.104;4.268;2024-01-25T09:38:12;27.48;;;5.90;;
76423;SDS011;65257;52.104;4.268;2024-01-25T09:40:43;21.35;;;5.82;;
76423;SDS011;65257;52.104;4.268;2024-01-25T09:43:08;31.85;;;7.40;;
76423;SDS011;65257;52.104;4.268;2024-01-25T09:45:34;29.70;;;8.55;;
76423;SDS011;65257;52.104;4.268;2024-01-25T09:48:00;26.95;;;6.35;;
76423;SDS011;65257;52.104;4.268;2024-01-25T09:50:29;18.08;;;5.88;;
76423;SDS011;65257;52.104;4.268;2024-01-25T09:53:01;29.70;;;8.02;;
76423;SDS011;65257;52.104;4.268;2024-01-25T09:55:29;24.27;;;6.53;;
76423;SDS011;65257;52.104;4.268;2024-01-25T09:57:57;22.75;;;6.15;;
76423;SDS011;65257;52.104;4.268;2024-01-25T10:00:23;28.00;;;5.97;;
76423;SDS011;65257;52.104;4.268;2024-01-25T10:02:49;23.45;;;6.78;;
76423;SDS011;65257;52.104;4.268;2024-01-25T10:05:16;27.77;;;5.95;;
76423;SDS011;65257;52.104;4.268;2024-01-25T10:07:46;29.55;;;6.97;;
76423;SDS011;65257;52.104;4.268;2024-01-25T10:10:16;30.15;;;7.03;;
76423;SDS011;65257;52.104;4.268;2024-01-25T10:12:44;21.52;;;6.20;;
76423;SDS011;65257;52.104;4.268;2024-01-25T10:15:13;25.67;;;5.13;;
76423;SDS011;65257;52.104;4.268;2024-01-25T10:17:38;28.40;;;5.97;;
76423;SDS011;65257;52.104;4.268;2024-01-25T10:20:05;24.67;;;6.57;;
76423;SDS011;65257;52.104;4.268;2024-01-25T10:22:39;21.08;;;6.05;;
76423;SDS011;65257;52.104;4.268;2024-01-25T10:25:11;23.63;;;6.13;;
76423;SDS011;65257;52.104;4.268;2024-01-25T10:27:38;18.88;;;5.80;;
76423;SDS011;65257;52.104;4.268;2024-01-25T10:30:12;27.42;;;6.47;;
76423;SDS011;65257;52.104;4.268;2024-01-25T10:32:42;14.90;;;3.72;;
76423;SDS011;65257;52.104;4.268;2024-01-25T10:35:10;30.42;;;6.20;;
76423;SDS011;65257;52.104;4.268;2024-01-25T10:37:37;19.27;;;5.43;;
76423;SDS011;65257;52.104;4.268;2024-01-25T10:40:05;29.50;;;7.70;;
76423;SDS011;65257;52.104;4.268;2024-01-25T10:42:34;17.90;;;5.15;;
76423;SDS011;65257;52.104;4.268;2024-01-25T10:45:01;24.55;;;5.80;;
76423;SDS011;65257;52.104;4.268;2024-01-25T10:47:26;17.58;;;6.25;;
76423;SDS011;65257;52.104;4.268;2024-01-25T10:49:55;14.75;;;5.30;;
76423;SDS011;65257;52.104;4.268;2024-01-25T10:52:22;32.08;;;7.10;;
76423;SDS011;65257;52.104;4.268;2024-01-25T10:54:49;33.65;;;8.00;;
76423;SDS011;65257;52.104;4.268;2024-01-25T10:57:17;22.60;;;6.57;;
76423;SDS011;65257;52.104;4.268;2024-01-25T10:59:46;23.45;;;5.95;;
76423;SDS011;65257;52.104;4.268;2024-01-25T11:02:12;31.25;;;8.60;;
76423;SDS011;65257;52.104;4.268;2024-01-25T11:04:37;22.98;;;5.50;;
76423;SDS011;65257;52.104;4.268;2024-01-25T11:07:07;24.67;;;5.80;;
76423;SDS011;65257;52.104;4.268;2024-01-25T11:09:36;28.42;;;7.43;;
76423;SDS011;65257;52.104;4.268;2024-01-25T11:12:24;26.13;;;6.63;;
76423;SDS011;65257;52.104;4.268;2024-01-25T11:14:55;31.65;;;6.57;;
76423;SDS011;65257;52.104;4.268;2024-01-25T11:17:23;30.80;;;7.25;;
76423;SDS011;65257;52.104;4.268;2024-01-25T11:19:49;14.52;;;4.65;;
76423;SDS011;65257;52.104;4.268;2024-01-25T11:22:17;26.83;;;6.60;;
76423;SDS011;65257;52.104;4.268;2024-01-25T11:24:43;34.40;;;7.50;;
76423;SDS011;65257;52.104;4.268;2024-01-25T11:27:19;24.92;;;7.32;;
76423;SDS011;65257;52.104;4.268;2024-01-25T11:29:45;28.23;;;7.50;;
76423;SDS011;65257;52.104;4.268;2024-01-25T11:32:11;21.75;;;6.43;;
76423;SDS011;65257;52.104;4.268;2024-01-25T11:34:37;28.25;;;7.22;;
76423;SDS011;65257;52.104;4.268;2024-01-25T11:37:02;25.42;;;6.78;;
76423;SDS011;65257;52.104;4.268;2024-01-25T11:39:28;25.30;;;7.63;;
76423;SDS011;65257;52.104;4.268;2024-01-25T11:41:53;33.03;;;8.20;;
76423;SDS011;65257;52.104;4.268;2024-01-25T11:44:19;16.20;;;6.22;;
76423;SDS011;65257;52.104;4.268;2024-01-25T11:46:49;24.35;;;6.22;;
76423;SDS011;65257;52.104;4.268;2024-01-25T11:49:16;31.27;;;7.22;;
76423;SDS011;65257;52.104;4.268;2024-01-25T11:51:42;23.08;;;6.68;;
76423;SDS011;65257;52.104;4.268;2024-01-25T11:54:07;33.63;;;7.93;;
76423;SDS011;65257;52.104;4.268;2024-01-25T11:56:37;36.10;;;6.95;;
76423;SDS011;65257;52.104;4.268;2024-01-25T11:59:05;22.00;;;6.07;;
76423;SDS011;65257;52.104;4.268;2024-01-25T12:01:31;30.15;;;6.75;;
76423;SDS011;65257;52.104;4.268;2024-01-25T12:03:57;22.08;;;5.85;;
76423;SDS011;65257;52.104;4.268;2024-01-25T12:06:26;22.48;;;5.78;;
76423;SDS011;65257;52.104;4.268;2024-01-25T12:08:55;23.20;;;5.60;;
76423;SDS011;65257;52.104;4.268;2024-01-25T12:11:20;17.67;;;5.00;;
76423;SDS011;65257;52.104;4.268;2024-01-25T12:13:47;19.27;;;6.00;;
76423;SDS011;65257;52.104;4.268;2024-01-25T12:16:12;28.25;;;6.10;;
76423;SDS011;65257;52.104;4.268;2024-01-25T12:18:39;27.58;;;7.05;;
76423;SDS011;65257;52.104;4.268;2024-01-25T12:21:09;24.02;;;6.55;;
76423;SDS011;65257;52.104;4.268;2024-01-25T12:23:36;29.92;;;6.88;;
76423;SDS011;65257;52.104;4.268;2024-01-25T12:26:09;21.55;;;5.18;;
76423;SDS011;65257;52.104;4.268;2024-01-25T12:28:35;28.58;;;6.60;;
76423;SDS011;65257;52.104;4.268;2024-01-25T12:31:02;32.17;;;7.22;;
76423;SDS011;65257;52.104;4.268;2024-01-25T12:33:29;27.65;;;8.27;;
76423;SDS011;65257;52.104;4.268;2024-01-25T12:35:59;29.20;;;6.53;;
76423;SDS011;65257;52.104;4.268;2024-01-25T12:38:27;30.88;;;7.20;;
76423;SDS011;65257;52.104;4.268;2024-01-25T12:40:58;26.95;;;7.63;;
76423;SDS011;65257;52.104;4.268;2024-01-25T12:43:24;26.83;;;6.95;;
76423;SDS011;65257;52.104;4.268;2024-01-25T12:45:50;34.45;;;7.65;;
76423;SDS011;65257;52.104;4.268;2024-01-25T12:48:19;33.38;;;8.25;;
76423;SDS011;65257;52.104;4.268;2024-01-25T12:50:48;33.83;;;9.18;;
76423;SDS011;65257;52.104;4.268;2024-01-25T12:53:14;23.35;;;8.32;;
76423;SDS011;65257;52.104;4.268;2024-01-25T12:55:39;30.73;;;8.43;;
76423;SDS011;65257;52.104;4.268;2024-01-25T12:58:05;25.48;;;7.05;;
76423;SDS011;65257;52.104;4.268;2024-01-25T13:00:31;25.10;;;6.72;;
76423;SDS011;65257;52.104;4.268;2024-01-25T13:02:57;26.13;;;6.93;;
76423;SDS011;65257;52.104;4.268;2024-01-25T13:05:23;25.98;;;6.10;;
76423;SDS011;65257;52.104;4.268;2024-01-25T13:07:49;23.80;;;5.32;;
76423;SDS011;65257;52.104;4.268;2024-01-25T13:10:15;19.48;;;5.43;;
76423;SDS011;65257;52.104;4.268;2024-01-25T13:12:40;26.15;;;5.75;;
76423;SDS011;65257;52.104;4.268;2024-01-25T13:15:06;20.40;;;5.88;;
76423;SDS011;65257;52.104;4.268;2024-01-25T13:17:35;29.67;;;7.32;;
76423;SDS011;65257;52.104;4.268;2024-01-25T13:20:05;34.97;;;7.20;;
76423;SDS011;65257;52.104;4.268;2024-01-25T13:22:34;21.65;;;5.45;;
76423;SDS011;65257;52.104;4.268;2024-01-25T13:25:07;19.25;;;5.55;;
76423;SDS011;65257;52.104;4.268;2024-01-25T13:27:35;19.98;;;5.32;;
76423;SDS011;65257;52.104;4.268;2024-01-25T13:30:01;24.50;;;5.70;;
76423;SDS011;65257;52.104;4.268;2024-01-25T13:32:29;20.75;;;5.88;;
76423;SDS011;65257;52.104;4.268;2024-01-25T13:35:12;20.15;;;5.72;;
76423;SDS011;65257;52.104;4.268;2024-01-25T13:37:37;19.98;;;6.03;;
76423;SDS011;65257;52.104;4.268;2024-01-25T13:40:03;27.40;;;7.45;;
76423;SDS011;65257;52.104;4.268;2024-01-25T13:42:29;21.00;;;5.85;;
76423;SDS011;65257;52.104;4.268;2024-01-25T13:44:55;23.45;;;7.70;;
76423;SDS011;65257;52.104;4.268;2024-01-25T13:47:21;22.55;;;6.30;;
76423;SDS011;65257;52.104;4.268;2024-01-25T13:49:47;22.15;;;6.97;;
76423;SDS011;65257;52.104;4.268;2024-01-25T13:52:21;13.93;;;4.65;;
76423;SDS011;65257;52.104;4.268;2024-01-25T13:54:47;17.20;;;5.78;;
76423;SDS011;65257;52.104;4.268;2024-01-25T13:57:16;17.05;;;6.32;;
76423;SDS011;65257;52.104;4.268;2024-01-25T13:59:54;17.65;;;5.88;;
76423;SDS011;65257;52.104;4.268;2024-01-25T14:02:20;16.67;;;6.88;;
76423;SDS011;65257;52.104;4.268;2024-01-25T14:04:48;23.13;;;8.32;;
76423;SDS011;65257;52.104;4.268;2024-01-25T14:07:17;27.33;;;8.05;;
76423;SDS011;65257;52.104;4.268;2024-01-25T14:09:42;22.92;;;8.23;;
76423;SDS011;65257;52.104;4.268;2024-01-25T14:12:08;23.98;;;8.18;;
76423;SDS011;65257;52.104;4.268;2024-01-25T14:14:33;28.27;;;9.38;;
76423;SDS011;65257;52.104;4.268;2024-01-25T14:16:59;21.80;;;7.88;;
76423;SDS011;65257;52.104;4.268;2024-01-25T14:19:31;27.38;;;9.20;;
76423;SDS011;65257;52.104;4.268;2024-01-25T14:21:57;33.67;;;10.00;;
76423;SDS011;65257;52.104;4.268;2024-01-25T14:24:22;31.42;;;11.75;;
76423;SDS011;65257;52.104;4.268;2024-01-25T14:26:48;27.55;;;9.82;;
76423;SDS011;65257;52.104;4.268;2024-01-25T14:29:14;32.90;;;12.25;;
76423;SDS011;65257;52.104;4.268;2024-01-25T14:31:39;28.80;;;12.88;;
76423;SDS011;65257;52.104;4.268;2024-01-25T14:34:06;36.22;;;13.45;;
76423;SDS011;65257;52.104;4.268;2024-01-25T14:36:38;35.25;;;14.02;;
76423;SDS011;65257;52.104;4.268;2024-01-25T14:39:04;29.70;;;14.13;;